Terminal Aerodrome Forecast
Issued by NWS Atlanta, GA

Home | Current Version | Previous Version | Text Only | Print | Product List | Glossary On
Versions: 1 2 3 4 5 6 7 8 9 10 11 12 13 14 15 16
000
FTUS42 KFFC 012300
TAFCSG
TAF
KCSG 012324Z 0200/0224 VRB03KT P6SM SKC
     FM021000 00000KT 6SM BR SCT012
      TEMPO 0210/0213 4SM BR OVC012
     FM021400 17004KT P6SM SCT035=

USA.gov is the U.S. government's official web portal to all federal, state and local government web resources and services.